Time;durP1;ratioP1;P1;durP2;ratioP2;P2;SDS_P1;SDS_P2;PMS_P1;PMS_P2;Temp;Humidity;BMP_temperature;BMP_pressure;BME280_temperature;BME280_humidity;BME280_pressure;Samples;Min_cycle;Max_cycle;Signal;HPM_P1;HPM_P2
2022/09/20 00:01:12;;;;;;;6.03;4.72;;;;;;;8.08;100.00;97580.09;1829992;78;21086;-68
2022/09/20 00:03:41;;;;;;;5.40;4.47;;;;;;;8.08;100.00;97570.23;1830072;78;21476;-68
2022/09/20 00:06:10;;;;;;;6.85;3.92;;;;;;;8.03;100.00;97575.61;1830162;78;20946;-67
2022/09/20 00:08:37;;;;;;;6.67;4.70;;;;;;;7.99;100.00;97578.59;1829869;78;20883;-65
2022/09/20 00:11:11;;;;;;;5.70;4.53;;;;;;;7.98;100.00;97575.70;1830120;78;21382;-68
2022/09/20 00:13:38;;;;;;;6.67;5.17;;;;;;;7.98;100.00;97577.56;1829997;78;21434;-67
2022/09/20 00:16:08;;;;;;;6.25;4.60;;;;;;;7.95;100.00;97576.78;1829912;78;20996;-64
2022/09/20 00:18:35;;;;;;;7.45;4.83;;;;;;;7.90;100.00;97574.97;1829967;78;21353;-68
2022/09/20 00:21:02;;;;;;;6.42;4.92;;;;;;;7.85;100.00;97587.02;1830072;78;20876;-63
2022/09/20 00:23:29;;;;;;;5.92;5.10;;;;;;;7.81;100.00;97580.66;1830107;78;21476;-67
2022/09/20 00:26:00;;;;;;;7.65;5.10;;;;;;;7.78;100.00;97586.55;1830187;78;21936;-67
2022/09/20 00:28:27;;;;;;;6.28;5.10;;;;;;;7.77;100.00;97592.17;1829763;78;20863;-67
2022/09/20 00:30:55;;;;;;;6.45;4.90;;;;;;;7.75;100.00;97597.00;1828192;78;20902;-67
2022/09/20 00:33:23;;;;;;;6.95;5.00;;;;;;;7.70;100.00;97591.70;1826927;78;20887;-66
2022/09/20 00:35:50;;;;;;;6.58;5.05;;;;;;;7.65;100.00;97596.55;1827283;78;20961;-66
2022/09/20 00:38:17;;;;;;;7.92;5.42;;;;;;;7.62;100.00;97593.64;1827041;78;21222;-68
2022/09/20 00:40:44;;;;;;;6.22;5.60;;;;;;;7.60;100.00;97592.59;1826887;78;20882;-66
2022/09/20 00:43:15;;;;;;;7.85;5.50;;;;;;;7.56;100.00;97596.88;1827064;78;20898;-63
2022/09/20 00:45:46;;;;;;;7.03;4.92;;;;;;;7.55;100.00;97592.64;1827064;78;20883;-64
2022/09/20 00:48:21;;;;;;;6.97;5.10;;;;;;;7.51;100.00;97591.61;1827296;78;21361;-67
2022/09/20 00:50:54;;;;;;;7.47;5.78;;;;;;;7.49;100.00;97583.88;1826908;78;21106;-65
2022/09/20 00:53:41;;;;;;;6.53;5.40;;;;;;;7.50;100.00;97591.34;1826349;78;20879;-66
2022/09/20 00:56:12;;;;;;;9.08;5.37;;;;;;;7.55;100.00;97599.30;1827187;78;21394;-65
2022/09/20 00:58:48;;;;;;;8.65;5.50;;;;;;;7.59;100.00;97593.66;1827405;78;21438;-64
2022/09/20 01:01:15;;;;;;;7.30;5.10;;;;;;;7.64;100.00;97590.15;1827116;78;20902;-63
2022/09/20 01:03:42;;;;;;;6.78;5.30;;;;;;;7.68;100.00;97591.20;1827055;78;21156;-63
2022/09/20 01:06:11;;;;;;;7.00;5.20;;;;;;;7.66;100.00;97595.45;1806583;78;20973;-65
2022/09/20 01:08:37;;;;;;;6.12;5.47;;;;;;;7.66;100.00;97590.66;1826931;78;20957;-64
2022/09/20 01:11:04;;;;;;;8.23;5.62;;;;;;;7.65;100.00;97588.55;1780831;78;20883;-63
2022/09/20 01:13:31;;;;;;;8.88;5.55;;;;;;;7.62;100.00;97583.77;1827063;78;21355;-63
2022/09/20 01:15:59;;;;;;;6.80;5.50;;;;;;;7.60;100.00;97585.93;1826955;78;21139;-66
2022/09/20 01:18:26;;;;;;;7.33;5.40;;;;;;;7.56;100.00;97584.34;1826858;78;21001;-65
2022/09/20 01:20:53;;;;;;;7.47;5.90;;;;;;;7.52;100.00;97582.52;1827034;78;21228;-67
2022/09/20 01:23:31;;;;;;;8.60;6.53;;;;;;;7.48;100.00;97581.50;1826941;78;20970;-64
2022/09/20 01:26:32;;;;;;;8.70;5.97;;;;;;;7.45;100.00;97587.38;1826986;78;21043;-66
2022/09/20 01:29:19;;;;;;;6.97;5.62;;;;;;;7.39;100.00;97581.32;1827058;78;21217;-67
2022/09/20 01:31:53;;;;;;;9.70;5.47;;;;;;;7.35;100.00;97574.14;1826480;78;20962;-67
2022/09/20 01:34:33;;;;;;;7.80;5.97;;;;;;;7.37;100.00;97574.12;1826720;78;20844;-65
2022/09/20 01:37:25;;;;;;;8.53;6.45;;;;;;;7.38;100.00;97581.58;1826940;78;20917;-67
2022/09/20 01:40:32;;;;;;;9.48;6.10;;;;;;;7.35;100.00;97574.14;1826965;78;20867;-66
2022/09/20 01:43:33;;;;;;;6.90;6.00;;;;;;;7.29;100.00;97572.60;1827056;78;21112;-68
2022/09/20 01:46:18;;;;;;;9.05;6.15;;;;;;;7.23;100.00;97573.17;1827044;78;20887;-66
2022/09/20 01:48:45;;;;;;;7.63;6.67;;;;;;;7.22;100.00;97580.12;1823172;78;20866;-65
2022/09/20 01:51:52;;;;;;;7.10;6.28;;;;;;;7.24;100.00;97579.30;1780422;78;20852;-68
2022/09/20 01:54:27;;;;;;;8.13;6.33;;;;;;;7.28;100.00;97586.98;1827436;78;21476;-66
2022/09/20 01:57:15;;;;;;;8.88;5.80;;;;;;;7.27;100.00;97586.20;1827354;78;21217;-68
2022/09/20 02:00:08;;;;;;;9.93;6.03;;;;;;;7.31;100.00;97582.44;1826596;78;20918;-63
2022/09/20 02:02:55;;;;;;;7.25;6.15;;;;;;;7.38;100.00;97593.57;1827115;78;20902;-66
2022/09/20 02:05:48;;;;;;;7.25;6.50;;;;;;;7.38;100.00;97593.57;1826269;78;21412;-62
2022/09/20 02:08:53;;;;;;;8.98;6.55;;;;;;;7.34;100.00;97588.02;1826845;78;21540;-63
2022/09/20 02:11:52;;;;;;;8.43;5.87;;;;;;;7.30;100.00;97586.96;1827187;78;21102;-65
2022/09/20 02:14:54;;;;;;;7.25;6.40;;;;;;;7.25;100.00;97584.89;1827026;78;20907;-67
2022/09/20 02:17:44;;;;;;;9.73;7.05;;;;;;;7.23;100.00;97588.38;1826910;78;20835;-66
2022/09/20 02:20:35;;;;;;;9.03;6.60;;;;;;;7.25;100.00;97584.89;1827329;78;20886;-65
2022/09/20 02:23:30;;;;;;;8.68;6.05;;;;;;;7.20;100.00;97592.92;1827206;78;20815;-63
2022/09/20 02:26:34;;;;;;;9.10;6.80;;;;;;;7.16;100.00;97595.89;1827186;78;21094;-63
2022/09/20 02:29:32;;;;;;;8.30;6.70;;;;;;;7.19;100.00;97599.31;1827191;78;20910;-66
2022/09/20 02:32:25;;;;;;;9.65;6.87;;;;;;;7.29;100.00;97604.57;1829527;78;20946;-66
2022/09/20 02:35:06;;;;;;;11.43;7.65;;;;;;;7.30;100.00;97606.17;1829964;78;20914;-64
2022/09/20 02:38:01;;;;;;;7.70;6.90;;;;;;;7.30;100.00;97608.84;1830109;78;20867;-65
2022/09/20 02:41:00;;;;;;;10.63;6.95;;;;;;;7.32;100.00;97612.81;1822121;78;21222;-67
2022/09/20 02:43:36;;;;;;;11.18;7.25;;;;;;;7.37;100.00;97611.98;1830098;78;20871;-65
2022/09/20 02:46:20;;;;;;;10.08;7.72;;;;;;;7.38;100.00;97610.89;1830098;78;20870;-64
2022/09/20 02:49:07;;;;;;;9.03;8.08;;;;;;;7.38;100.00;97617.55;1829935;78;20922;-63
2022/09/20 02:51:54;;;;;;;9.15;8.08;;;;;;;7.39;100.00;97615.95;1830213;78;21366;-67
2022/09/20 02:55:06;;;;;;;9.18;8.00;;;;;;;7.46;100.00;97615.63;1801532;78;21066;-66
2022/09/20 02:57:56;;;;;;;8.90;8.00;;;;;;;7.54;100.00;97628.34;1829872;78;20879;-66
2022/09/20 03:00:35;;;;;;;13.55;8.88;;;;;;;7.59;100.00;97625.11;1813667;78;20909;-62
2022/09/20 03:03:16;;;;;;;11.53;8.58;;;;;;;7.64;100.00;97628.27;1829889;78;20918;-67
2022/09/20 03:05:51;;;;;;;10.40;8.70;;;;;;;7.65;100.00;97626.41;1829995;78;20871;-67
2022/09/20 03:08:26;;;;;;;12.50;8.65;;;;;;;7.62;100.00;97621.63;1830075;78;21152;-63
2022/09/20 03:11:14;;;;;;;13.03;8.85;;;;;;;7.60;100.00;97620.58;1830038;78;20906;-67
2022/09/20 03:14:17;;;;;;;10.82;8.03;;;;;;;7.61;100.00;97628.81;1830055;78;20906;-68
2022/09/20 03:17:15;;;;;;;15.10;8.90;;;;;;;7.62;100.00;97622.42;1756724;81;21028;-63
2022/09/20 03:20:21;;;;;;;9.35;8.03;;;;;;;7.52;100.00;97623.83;1756878;81;20920;-63
2022/09/20 03:22:53;;;;;;;10.07;8.90;;;;;;;7.41;100.00;97621.00;1818047;78;21706;-64
2022/09/20 03:25:41;;;;;;;10.32;8.28;;;;;;;7.37;100.00;97627.97;1829960;78;20954;-68
2022/09/20 03:28:36;;;;;;;10.40;8.65;;;;;;;7.30;100.00;97627.48;1829413;78;21445;-65
2022/09/20 03:31:48;;;;;;;13.20;8.80;;;;;;;7.24;100.00;97624.58;1830183;78;20851;-65
2022/09/20 03:34:51;;;;;;;10.75;8.75;;;;;;;7.18;100.00;97635.02;1829939;78;20898;-66
2022/09/20 03:37:47;;;;;;;10.90;9.38;;;;;;;7.20;100.00;97626.22;1829683;78;21231;-62
2022/09/20 03:40:46;;;;;;;13.00;8.70;;;;;;;7.20;100.00;97629.69;1829627;78;20902;-69
2022/09/20 03:43:36;;;;;;;11.40;8.80;;;;;;;7.24;100.00;97629.91;1830105;78;20838;-66
2022/09/20 03:46:22;;;;;;;10.38;7.95;;;;;;;7.21;100.00;97637.91;1828967;78;20917;-62
2022/09/20 03:49:24;;;;;;;10.85;8.43;;;;;;;7.19;100.00;97639.27;1829638;78;20918;-67
2022/09/20 03:52:16;;;;;;;10.23;8.75;;;;;;;7.08;100.00;97637.75;1829889;78;21203;-64
2022/09/20 03:55:35;;;;;;;11.97;8.15;;;;;;;7.01;100.00;97640.72;1829869;78;20820;-67
2022/09/20 03:58:23;;;;;;;16.10;9.65;;;;;;;6.98;100.00;97635.13;1830006;78;20859;-65
2022/09/20 04:01:26;;;;;;;11.03;9.83;;;;;;;6.89;100.00;97635.73;1829868;78;20965;-65
2022/09/20 04:04:42;;;;;;;15.50;10.20;;;;;;;6.88;100.00;97635.45;1829942;78;20835;-65
2022/09/20 04:07:39;;;;;;;10.20;8.70;;;;;;;6.84;100.00;97638.41;1830089;78;21220;-64
2022/09/20 04:10:17;;;;;;;11.53;8.78;;;;;;;6.78;100.00;97636.83;1830053;78;27134;-65
2022/09/20 04:13:23;;;;;;;14.05;9.58;;;;;;;6.76;100.00;97643.50;1830004;78;20867;-70
2022/09/20 04:16:14;;;;;;;12.10;10.20;;;;;;;6.73;100.00;97629.42;1831908;77;20956;-67
2022/09/20 04:19:06;;;;;;;23.18;9.65;;;;;;;6.78;100.00;97632.84;1849144;77;20970;-67
2022/09/20 04:21:55;;;;;;;10.45;9.45;;;;;;;6.83;100.00;97638.14;1849185;77;20865;-66
2022/09/20 04:24:49;;;;;;;10.80;9.20;;;;;;;6.81;100.00;97633.63;1849229;77;20868;-67
2022/09/20 04:27:46;;;;;;;12.13;8.65;;;;;;;6.83;100.00;97635.48;1849128;77;20951;-64
2022/09/20 04:30:26;;;;;;;;;;;;;;;6.82;100.00;97633.91;1851853;77;20961;-65
2022/09/20 04:33:23;;;;;;;14.00;9.43;;;;;;;6.76;100.00;97633.66;1848767;77;20087;-66
2022/09/20 04:39:09;;;;;;;12.37;7.97;;;;;;;6.86;100.00;97638.93;1848974;77;20861;-70
2022/09/20 04:42:00;;;;;;;10.93;7.28;;;;;;;6.82;100.00;97632.58;1848749;77;20947;-66
2022/09/20 04:44:49;;;;;;;16.12;8.38;;;;;;;6.81;100.00;97630.97;1848316;77;20998;-64
2022/09/20 04:47:24;;;;;;;15.30;9.08;;;;;;;6.76;100.00;97638.98;1848041;77;21021;-65
2022/09/20 04:50:34;;;;;;;18.20;11.38;;;;;;;6.69;100.00;97633.16;1846957;77;21234;-69
2022/09/20 04:53:30;;;;;;;12.50;9.53;;;;;;;6.71;100.00;97631.02;1848085;77;20899;-66
2022/09/20 04:56:20;;;;;;;9.60;8.60;;;;;;;6.77;100.00;97632.59;1848452;77;20951;-65
2022/09/20 04:59:09;;;;;;;9.25;7.90;;;;;;;6.84;100.00;97637.08;1846358;77;21020;-64
2022/09/20 05:02:14;;;;;;;21.45;9.00;;;;;;;6.81;100.00;97638.95;1783777;77;21108;-70
2022/09/20 05:05:37;;;;;;;39.38;8.90;;;;;;;6.81;100.00;97647.47;1838525;77;21221;-68
2022/09/20 05:08:44;;;;;;;12.20;10.90;;;;;;;6.83;100.00;97648.79;1847858;77;21001;-64
2022/09/20 05:11:52;;;;;;;19.30;16.70;;;;;;;6.78;100.00;97644.81;1805434;78;20931;-68
2022/09/20 05:14:47;;;;;;;14.83;12.68;;;;;;;6.87;100.00;97647.19;1812636;79;21102;-65
2022/09/20 05:17:34;;;;;;;20.33;12.53;;;;;;;6.99;100.00;97642.86;1756529;78;20908;-67
2022/09/20 05:20:23;;;;;;;23.25;10.50;;;;;;;7.05;100.00;97646.28;1818264;79;22208;-67
2022/09/20 05:23:27;;;;;;;13.18;8.80;;;;;;;7.09;100.00;97646.00;1779538;80;20904;-67
2022/09/20 05:26:23;;;;;;;12.23;9.28;;;;;;;7.08;100.00;97648.40;1777403;80;20924;-66
2022/09/20 05:29:37;;;;;;;11.22;9.03;;;;;;;7.09;100.00;97650.00;1798716;79;20964;-65
2022/09/20 05:32:17;;;;;;;248.75;96.57;;;;;;;7.12;100.00;97652.09;1798558;79;20892;-66
2022/09/20 05:34:58;;;;;;;51.02;27.75;;;;;;;7.14;100.00;97647.28;1798485;79;21122;-64
2022/09/20 05:37:58;;;;;;;18.40;12.00;;;;;;;7.22;100.00;97648.84;1798261;79;20826;-66
2022/09/20 05:40:50;;;;;;;10.23;8.80;;;;;;;7.30;100.00;97644.80;1753537;79;20880;-65
2022/09/20 05:43:25;;;;;;;11.95;9.60;;;;;;;7.35;100.00;97647.41;1768076;79;21411;-67
2022/09/20 05:46:20;;;;;;;55.23;26.90;;;;;;;7.40;100.00;97648.70;1787033;79;21055;-67
2022/09/20 05:49:08;;;;;;;27.60;18.45;;;;;;;7.50;100.00;97651.30;1789982;79;21183;-65
2022/09/20 05:51:59;;;;;;;11.22;9.23;;;;;;;7.65;100.00;97651.20;1800191;79;20833;-65
2022/09/20 05:54:50;;;;;;;16.00;12.47;;;;;;;7.75;100.00;97655.65;1784401;79;21007;-65
2022/09/20 05:57:40;;;;;;;13.13;11.73;;;;;;;7.74;100.00;97660.17;1778919;79;21015;-64
2022/09/20 06:00:19;;;;;;;14.98;12.07;;;;;;;7.82;100.00;97662.78;1783999;79;21055;-66
2022/09/20 06:03:16;;;;;;;9.68;8.23;;;;;;;7.89;100.00;97662.69;1784960;78;21277;-65
2022/09/20 06:05:46;;;;;;;;;;;;;;;7.99;100.00;97665.28;1774341;80;20993;-64
2022/09/20 06:08:24;;;;;;;10.95;9.00;;;;;;;8.03;100.00;97670.30;1806840;78;20067;-65
2022/09/20 06:11:09;;;;;;;9.63;8.68;;;;;;;7.99;100.00;97665.28;1812354;78;21399;-67
2022/09/20 06:13:51;;;;;;;11.78;8.28;;;;;;;7.97;100.00;97667.44;1781169;79;21042;-66
2022/09/20 06:16:45;;;;;;;10.60;8.20;;;;;;;7.98;100.00;97670.38;1801357;79;21243;-65
2022/09/20 06:19:50;;;;;;;9.93;8.93;;;;;;;7.87;99.44;97665.38;1794505;78;21014;-67
2022/09/20 06:22:32;;;;;;;11.28;10.08;;;;;;;7.72;99.63;97665.00;1809836;77;21093;-59
2022/09/20 06:25:10;;;;;;;17.00;10.30;;;;;;;7.71;100.00;97670.06;1821299;77;20979;-63
2022/09/20 06:27:48;;;;;;;10.48;9.30;;;;;;;7.73;100.00;97678.57;1822711;77;20951;-63
2022/09/20 06:30:23;;;;;;;13.13;9.93;;;;;;;7.74;100.00;97684.70;1832321;77;21235;-59
2022/09/20 06:32:57;;;;;;;;;;;;;;;7.70;99.81;97689.78;1817472;78;21403;-62
2022/09/20 06:35:36;;;;;;;12.20;10.90;;;;;;;7.63;100.00;97689.30;1809483;78;20164;-61
2022/09/20 06:41:27;;;;;;;11.93;10.50;;;;;;;7.57;100.00;97688.56;1830772;78;20940;-62
2022/09/20 06:43:58;;;;;;;14.50;11.73;;;;;;;7.48;100.00;97688.09;1826912;78;21214;-64
2022/09/20 06:46:30;;;;;;;13.50;11.25;;;;;;;7.54;100.00;97688.31;1828239;78;21035;-65
2022/09/20 06:48:57;;;;;;;13.95;11.90;;;;;;;7.64;100.00;97693.57;1829839;77;21014;-64
2022/09/20 06:51:27;;;;;;;15.13;12.85;;;;;;;7.68;100.00;97690.60;1832243;77;21072;-59
2022/09/20 06:53:55;;;;;;;16.05;12.15;;;;;;;7.73;100.00;97688.43;1815304;78;21601;-60
2022/09/20 06:56:25;;;;;;;13.13;11.55;;;;;;;7.81;100.00;97691.31;1819351;78;21184;-61
2022/09/20 06:58:52;;;;;;;13.83;11.63;;;;;;;7.85;100.00;97687.00;1828416;78;20983;-61
2022/09/20 07:01:20;;;;;;;15.23;10.72;;;;;;;7.84;100.00;97693.43;1828550;77;21525;-62
2022/09/20 07:03:46;;;;;;;15.00;12.55;;;;;;;7.83;100.00;97686.49;1829527;78;20924;-62
2022/09/20 07:06:18;;;;;;;14.63;12.23;;;;;;;7.76;100.00;97696.69;1826703;77;21485;-61
2022/09/20 07:08:42;;;;;;;14.20;12.73;;;;;;;7.77;100.00;97696.95;1742517;80;21194;-62
2022/09/20 07:11:15;;;;;;;15.98;13.60;;;;;;;7.80;100.00;97696.38;1741647;81;20957;-68
2022/09/20 07:13:42;;;;;;;17.17;11.88;;;;;;;7.86;100.00;97689.94;1822230;78;20940;-63
2022/09/20 07:16:12;;;;;;;13.90;11.05;;;;;;;7.88;100.00;97688.31;1827968;77;20983;-63
2022/09/20 07:18:41;;;;;;;14.50;10.88;;;;;;;7.89;100.00;97693.36;1827737;78;20979;-62
2022/09/20 07:21:11;;;;;;;16.27;11.08;;;;;;;7.99;100.00;97687.95;1823787;78;21489;-62
2022/09/20 07:23:37;;;;;;;11.70;10.50;;;;;;;8.14;100.00;97693.16;1812512;79;20971;-61
2022/09/20 07:26:05;;;;;;;12.05;10.08;;;;;;;8.24;99.40;97686.36;1801452;79;21427;-60
2022/09/20 07:28:33;;;;;;;12.53;10.50;;;;;;;8.20;98.69;97694.69;1801648;78;20977;-61
2022/09/20 07:31:00;;;;;;;11.55;10.23;;;;;;;8.14;98.83;97695.82;1823227;78;20998;-62
2022/09/20 07:33:27;;;;;;;9.60;8.60;;;;;;;8.21;99.24;97700.29;1829597;78;21113;-64
2022/09/20 07:35:54;;;;;;;11.08;9.93;;;;;;;8.21;97.67;97701.63;1829830;78;20908;-64
2022/09/20 07:38:23;;;;;;;13.45;11.22;;;;;;;8.16;97.80;97699.00;1832717;78;21288;-62
2022/09/20 07:40:59;;;;;;;10.95;8.83;;;;;;;8.21;98.03;97707.49;1762268;81;21011;-62
2022/09/20 07:43:31;;;;;;;11.53;8.58;;;;;;;8.27;97.39;97713.05;1759994;79;21126;-61
2022/09/20 07:45:58;;;;;;;14.55;10.13;;;;;;;8.24;97.09;97715.71;1826025;78;21083;-60
2022/09/20 07:48:37;;;;;;;10.80;9.28;;;;;;;8.21;97.25;97719.50;1827129;78;21352;-61
2022/09/20 07:51:14;;;;;;;11.80;8.98;;;;;;;8.23;97.49;97718.67;1820514;78;21585;-62
2022/09/20 07:53:42;;;;;;;10.50;8.60;;;;;;;8.26;97.44;97723.48;1812285;78;20976;-62
2022/09/20 07:56:17;;;;;;;10.15;9.03;;;;;;;8.29;97.21;97722.13;1822899;77;20963;-62
2022/09/20 07:58:45;;;;;;;10.08;8.40;;;;;;;8.23;96.98;97726.14;1831801;77;21803;-64
2022/09/20 08:01:12;;;;;;;14.87;8.98;;;;;;;8.17;96.72;97733.92;1831164;77;21032;-58
2022/09/20 08:03:39;;;;;;;10.35;8.50;;;;;;;8.12;96.88;97737.19;1819505;78;21386;-59
2022/09/20 08:06:09;;;;;;;10.82;7.70;;;;;;;8.05;96.90;97730.05;1828214;78;21118;-61
2022/09/20 08:08:39;;;;;;;10.35;7.25;;;;;;;8.07;97.17;97728.70;1818598;78;21306;-57
2022/09/20 08:11:12;;;;;;;;;;;;;;;8.17;97.36;97725.92;1783705;79;48483;-59
2022/09/20 08:13:46;;;;;;;8.03;6.87;;;;;;;8.32;96.94;97727.69;1780595;80;20091;-60
2022/09/20 08:16:15;;;;;;;7.97;6.75;;;;;;;8.38;96.57;97729.25;1772655;79;20951;-59
2022/09/20 08:18:57;;;;;;;11.22;7.33;;;;;;;8.46;96.52;97727.81;1829480;78;21002;-61
2022/09/20 08:21:26;;;;;;;9.15;7.62;;;;;;;8.58;96.74;97727.69;1830129;78;20968;-58
2022/09/20 08:23:53;;;;;;;10.93;8.00;;;;;;;8.71;96.58;97730.23;1823302;78;21103;-60
2022/09/20 08:26:23;;;;;;;9.30;8.33;;;;;;;8.76;96.09;97724.84;1827672;78;21536;-61
2022/09/20 08:28:52;;;;;;;9.65;8.48;;;;;;;8.82;95.91;97725.02;1815003;78;21047;-64
2022/09/20 08:31:21;;;;;;;12.60;7.33;;;;;;;8.89;95.81;97732.15;1831724;78;20954;-61
2022/09/20 08:33:49;;;;;;;8.15;7.08;;;;;;;8.89;94.88;97724.14;1807921;78;21107;-58
2022/09/20 08:36:23;;;;;;;8.95;7.50;;;;;;;8.87;94.87;97728.97;1829496;78;21230;-59
2022/09/20 08:38:51;;;;;;;9.25;8.00;;;;;;;8.91;94.16;97730.78;1829142;78;21450;-61
2022/09/20 08:41:43;;;;;;;9.98;7.50;;;;;;;8.91;93.75;97728.65;1835121;78;21482;-58
2022/09/20 08:44:31;;;;;;;10.18;8.03;;;;;;;8.85;93.02;97724.46;1811357;78;20936;-58
2022/09/20 08:47:20;;;;;;;8.05;7.05;;;;;;;8.67;92.16;97727.85;1825771;77;21021;-63
2022/09/20 08:49:48;;;;;;;12.00;8.30;;;;;;;8.55;93.05;97721.58;1835991;77;21193;-61
2022/09/20 08:52:19;;;;;;;8.93;8.03;;;;;;;8.63;93.69;97726.84;1836092;78;20861;-62
2022/09/20 08:54:46;;;;;;;11.78;8.45;;;;;;;8.67;93.44;97723.84;1835582;78;21079;-64
2022/09/20 08:57:18;;;;;;;10.28;7.42;;;;;;;8.69;93.58;97724.38;1837675;78;20952;-57
2022/09/20 08:59:47;;;;;;;7.37;6.08;;;;;;;8.77;93.49;97717.87;1839205;77;20861;-60
2022/09/20 09:02:28;;;;;;;8.95;6.80;;;;;;;8.79;92.17;97718.91;1830613;78;21206;-63
2022/09/20 09:05:01;;;;;;;7.80;6.30;;;;;;;8.79;92.56;97710.89;1823934;78;20900;-65
2022/09/20 09:07:29;;;;;;;9.25;6.60;;;;;;;8.97;93.24;97706.16;1816134;78;21086;-62
2022/09/20 09:09:56;;;;;;;7.45;6.40;;;;;;;9.18;93.11;97708.82;1836858;78;21533;-61
2022/09/20 09:12:28;;;;;;;10.78;6.87;;;;;;;9.34;92.06;97706.19;1834811;78;21018;-62
2022/09/20 09:15:03;;;;;;;7.47;6.40;;;;;;;9.40;90.72;97705.02;1825077;78;21169;-61
2022/09/20 09:17:31;;;;;;;7.33;5.95;;;;;;;9.40;89.00;97705.02;1827160;78;21035;-63
2022/09/20 09:20:09;;;;;;;7.75;5.78;;;;;;;9.34;89.36;97707.52;1826734;78;21083;-64
2022/09/20 09:22:44;;;;;;;6.75;5.65;;;;;;;9.35;88.53;97712.34;1821333;77;20960;-65
2022/09/20 09:25:22;;;;;;;7.05;4.90;;;;;;;9.40;88.54;97710.91;1827715;78;21075;-60
2022/09/20 09:28:11;;;;;;;5.97;5.37;;;;;;;9.53;88.40;97706.98;1828838;78;21276;-61
2022/09/20 09:30:48;;;;;;;5.75;5.17;;;;;;;9.74;88.68;97702.66;1828200;77;20960;-61
2022/09/20 09:33:27;;;;;;;6.67;4.95;;;;;;;9.86;86.63;97706.48;1828607;78;20924;-58
2022/09/20 09:36:09;;;;;;;5.80;5.05;;;;;;;9.85;85.95;97706.22;1836943;78;21343;-60
2022/09/20 09:38:39;;;;;;;7.40;4.72;;;;;;;9.86;86.11;97707.02;1817034;77;20980;-55
2022/09/20 09:41:25;;;;;;;5.10;4.40;;;;;;;9.91;85.98;97706.40;1829355;78;21754;-55
2022/09/20 09:44:09;;;;;;;6.58;5.28;;;;;;;9.97;85.36;97705.75;1810461;79;20892;-54
2022/09/20 09:46:39;;;;;;;7.28;6.03;;;;;;;9.95;84.69;97709.27;1810287;78;21621;-56
2022/09/20 09:49:18;;;;;;;5.22;4.70;;;;;;;10.04;85.30;97704.83;1829155;77;21064;-56
2022/09/20 09:52:14;;;;;;;5.75;4.40;;;;;;;10.23;84.21;97702.94;1822896;78;21019;-57
2022/09/20 09:54:50;;;;;;;7.33;4.65;;;;;;;10.26;82.54;97707.17;1816151;77;21536;-57
2022/09/20 09:57:22;;;;;;;4.75;4.25;;;;;;;10.29;83.22;97703.88;1814568;78;21062;-56
2022/09/20 10:00:00;;;;;;;5.90;4.37;;;;;;;10.37;82.51;97706.97;1820725;76;20960;-56
2022/09/20 10:02:54;;;;;;;5.40;4.70;;;;;;;10.43;82.58;97704.47;1823313;78;20986;-57
2022/09/20 10:05:29;;;;;;;5.90;5.40;;;;;;;10.41;81.18;97704.73;1776581;78;20978;-57
2022/09/20 10:08:32;;;;;;;5.55;4.92;;;;;;;10.38;82.03;97700.00;1800427;78;21259;-57
2022/09/20 10:11:38;;;;;;;5.47;4.08;;;;;;;10.45;82.01;97694.25;1820804;78;21007;-56
2022/09/20 10:14:28;;;;;;;4.78;4.25;;;;;;;10.60;82.41;97696.08;1797354;78;20975;-58
2022/09/20 10:17:03;;;;;;;4.25;3.70;;;;;;;10.86;81.60;97689.14;1777271;78;20883;-58
2022/09/20 10:19:44;;;;;;;4.03;3.40;;;;;;;11.08;79.01;97699.69;1823860;77;20943;-58
2022/09/20 10:22:23;;;;;;;5.30;3.20;;;;;;;11.16;78.40;97694.44;1796813;79;21103;-57
2022/09/20 10:25:10;;;;;;;4.03;3.55;;;;;;;11.27;78.09;97691.77;1836530;78;20971;-56
2022/09/20 10:27:48;;;;;;;4.08;3.02;;;;;;;11.36;76.87;97693.18;1819926;78;21064;-53
2022/09/20 10:30:21;;;;;;;3.55;2.85;;;;;;;11.45;75.76;97691.36;1738083;82;20991;-57
2022/09/20 10:33:15;;;;;;;3.80;3.00;;;;;;;11.48;74.54;97696.13;1756921;81;21107;-56
2022/09/20 10:36:00;;;;;;;3.22;2.60;;;;;;;11.44;74.80;97699.18;1769591;80;21134;-58
2022/09/20 10:38:37;;;;;;;3.60;2.58;;;;;;;11.38;74.99;97689.64;1836883;78;20995;-57
2022/09/20 10:44:17;;;;;;;3.98;2.98;;;;;;;11.85;75.09;97692.34;1803493;79;20998;-56
2022/09/20 10:47:18;;;;;;;3.65;3.10;;;;;;;12.23;74.25;97685.48;1812829;78;21570;-58
2022/09/20 10:50:19;;;;;;;5.30;3.33;;;;;;;12.46;73.45;97688.36;1823567;77;21109;-61
2022/09/20 10:53:08;;;;;;;3.83;2.80;;;;;;;12.64;73.42;97684.66;1788403;79;21063;-56
2022/09/20 10:56:08;;;;;;;4.37;3.47;;;;;;;12.78;72.12;97680.52;1810965;78;20988;-57
2022/09/20 10:59:02;;;;;;;4.72;3.85;;;;;;;12.74;71.54;97680.91;1820821;77;21008;-58
2022/09/20 11:02:03;;;;;;;3.98;3.30;;;;;;;12.63;71.76;97680.92;1815321;78;21556;-59
2022/09/20 11:05:06;;;;;;;4.58;3.62;;;;;;;12.62;72.09;97673.98;1806494;78;21191;-69
2022/09/20 11:07:53;;;;;;;3.62;3.33;;;;;;;12.77;72.48;97676.23;1818436;77;20951;-62
2022/09/20 11:10:28;;;;;;;3.92;3.33;;;;;;;12.84;71.94;97671.19;1838059;78;20894;-69
2022/09/20 11:13:03;;;;;;;3.83;3.40;;;;;;;12.87;71.77;97675.95;1838214;78;20924;-62
2022/09/20 11:15:38;;;;;;;4.55;2.80;;;;;;;13.04;72.88;97662.56;1825031;78;21098;-62
2022/09/20 11:18:08;;;;;;;;;;;;;;;13.24;72.61;97667.36;1817061;78;21143;-60
2022/09/20 11:20:48;;;;;;;3.25;2.95;;;;;;;13.24;69.91;97670.05;1837645;78;20068;-65
2022/09/20 11:23:20;;;;;;;3.42;3.10;;;;;;;13.17;69.33;97669.72;1837825;78;20892;-61
2022/09/20 11:25:55;;;;;;;4.00;3.30;;;;;;;13.08;69.09;97668.92;1836743;78;21092;-59
2022/09/20 11:28:35;;;;;;;4.28;3.50;;;;;;;12.91;69.68;97676.91;1837256;78;21063;-58
2022/09/20 11:31:22;;;;;;;3.55;3.10;;;;;;;12.81;70.85;97675.30;1836450;78;21229;-59
2022/09/20 11:34:06;;;;;;;3.95;3.42;;;;;;;12.80;71.87;97678.30;1835043;77;21015;-60
2022/09/20 11:37:00;;;;;;;4.00;3.37;;;;;;;12.82;71.75;97669.37;1757108;81;20948;-59
2022/09/20 11:39:54;;;;;;;4.90;4.00;;;;;;;12.88;71.69;97672.17;1765341;80;20972;-58
2022/09/20 11:42:29;;;;;;;4.47;4.00;;;;;;;12.82;70.15;97672.06;1767474;80;20979;-57
2022/09/20 11:44:56;;;;;;;4.33;3.80;;;;;;;12.68;70.79;97676.76;1776451;80;20935;-56
2022/09/20 11:47:37;;;;;;;5.37;3.50;;;;;;;12.57;71.07;97679.48;1766486;80;20988;-58
2022/09/20 11:50:45;;;;;;;3.55;3.25;;;;;;;12.46;71.48;97675.50;1771245;80;21404;-57
2022/09/20 11:53:43;;;;;;;4.20;3.80;;;;;;;12.33;72.02;97677.17;1769343;80;21118;-57
2022/09/20 11:56:21;;;;;;;4.45;4.05;;;;;;;12.19;72.70;97685.31;1767683;81;20937;-59
2022/09/20 11:58:50;;;;;;;5.33;4.78;;;;;;;12.07;73.65;97679.72;1789751;79;21288;-56
2022/09/20 12:01:34;;;;;;;5.00;4.15;;;;;;;12.05;74.67;97681.12;1790962;80;20952;-58
2022/09/20 12:04:25;;;;;;;7.00;4.42;;;;;;;12.02;75.69;97685.20;1792466;80;21361;-66
2022/09/20 12:07:00;;;;;;;5.78;3.90;;;;;;;11.97;75.92;97689.90;1766266;80;20994;-57
2022/09/20 12:09:39;;;;;;;5.35;4.12;;;;;;;11.88;76.52;97684.48;1768171;80;20942;-60
2022/09/20 12:12:36;;;;;;;4.03;3.62;;;;;;;11.83;77.32;97695.33;1773772;80;21168;-60
2022/09/20 12:15:27;;;;;;;4.67;3.60;;;;;;;11.83;77.07;97688.62;1769257;80;20953;-58
2022/09/20 12:18:01;;;;;;;4.15;3.75;;;;;;;11.82;76.61;97685.72;1776487;80;20971;-60
2022/09/20 12:20:37;;;;;;;4.60;3.55;;;;;;;11.82;77.09;97697.80;1770163;80;21015;-59
2022/09/20 12:23:42;;;;;;;6.53;3.22;;;;;;;11.78;76.94;97692.77;1778598;80;20905;-57
2022/09/20 12:26:28;;;;;;;3.75;2.80;;;;;;;11.78;77.37;97691.42;1740270;81;23879;-59
2022/09/20 12:29:00;;;;;;;;;;;;;;;11.78;77.35;97692.77;1783213;79;20916;-57
2022/09/20 12:31:37;;;;;;;3.37;2.77;;;;;;;11.76;77.92;97682.89;1771462;79;20103;-58
2022/09/20 12:34:21;;;;;;;5.10;3.50;;;;;;;11.84;77.85;97691.56;1757855;79;20928;-57
2022/09/20 12:37:00;;;;;;;6.90;3.55;;;;;;;11.93;78.23;97689.73;1762397;80;20952;-59
2022/09/20 12:39:39;;;;;;;5.05;3.47;;;;;;;12.05;78.29;97689.97;1769813;80;21279;-61
2022/09/20 12:42:14;;;;;;;3.72;3.33;;;;;;;12.10;76.73;97690.39;1748433;81;20991;-60
2022/09/20 12:45:00;;;;;;;;;;;;;;;12.06;76.38;97681.38;1773206;81;21043;-57
2022/09/20 12:47:31;;;;;;;3.52;2.90;;;;;;;12.05;77.18;97681.92;1770488;81;20096;-59
2022/09/20 12:52:52;;;;;;;3.90;3.15;;;;;;;12.27;76.86;97683.78;1766995;81;21186;-59